Fremont, MI

6:48 AM EST on February 10, 2016 (GMT -0500)
Fremont

Weather History for KFFX - January, 2014

Change the Weather History Date:

Monday, January 13, 2014

  Actual Average (KMKG) Record (KMKG)
Temperature  
Mean Temperature 34 °F 25 °F  
Max Temperature 40 °F 31 °F 52 °F (1932)
Min Temperature 27 °F 20 °F -2 °F (1912)
Degree Days  
Heating Degree Days 32 40  
Month to date heating degree days 507  
Since 1 July heating degree days 2953  
Cooling Degree Days 0 0  
Month to date cooling degree days 0  
Year to date cooling degree days 0  
Moisture  
Dew Point 32 °F    
Average Humidity 82    
Maximum Humidity 93    
Minimum Humidity 65    
Precipitation  
Precipitation 0.00 in 0.07 in 1.17 in (1950)
Month to date precipitation 0.92  
Year to date precipitation 0.92  
Snow  
Snow 0.00 in 0.90 in 13.90 in (1979)
Month to date snowfall 11.7  
Since 1 July snowfall 46.8  
Snow Depth -    
Sea Level Pressure  
Sea Level Pressure 29.56 in    
Wind  
Wind Speed 12 mph (SW)    
Max Wind Speed 20 mph    
Max Gust Speed 28 mph    
Visibility 10 miles    
Events      
T = Trace of Precipitation, MM = Missing Value Source: NWS Daily Summary

Daily Weather History Graph

Daily Weather History Graph

Search for Another Location

Airport or City:

Trip Planner

Search our weather history database for the weather conditions in past years. The results will help you decide how hot, cold, wet, or windy it might be!

Date:

Astronomy

Jan. 13, 2014 Rise Set
Actual Time 8:14 AM EST 5:31 PM EST
Civil Twilight 7:42 AM EST 6:02 PM EST
Nautical Twilight 7:07 AM EST 6:38 PM EST
Astronomical Twilight 6:33 AM EST 7:12 PM EST
Moon 3:46 PM EST (1/13) 6:02 AM EST (1/13)
Length of Visible Light 10h 20m
Length of Day
9h 16m
Waxing Gibbous, 95% of the Moon is Illuminated
Jan 13
Waxing Gibbous
Jan 15
Full
Jan 24
Last Quarter
Jan 30
New
Feb 6
First Quarter

Hourly Weather History & Observations

Time (EST) Temp. Windchill Dew Point Humidity Pressure Visibility Wind Dir Wind Speed Gust Speed Precip Events Conditions
12:15 AM 40.1 °F 31.3 °F 29.3 °F 65% 29.60 in 10.0 mi SSW 17.3 mph 27.6 mph N/A   Clear
12:35 AM 40.3 °F 31.0 °F 29.7 °F 66% 29.59 in 10.0 mi SSW 19.6 mph 27.6 mph N/A   Clear
12:55 AM 39.6 °F 30.6 °F 30.0 °F 69% 29.59 in 10.0 mi SW 17.3 mph 24.2 mph N/A   Clear
1:15 AM 39.6 °F 30.0 °F 30.2 °F 69% 29.59 in 10.0 mi SW 19.6 mph 25.3 mph N/A   Clear
1:35 AM 39.4 °F 30.4 °F 30.6 °F 71% 29.58 in 10.0 mi SSW 17.3 mph 24.2 mph N/A   Clear
1:55 AM 39.4 °F 30.4 °F 30.7 °F 71% 29.58 in 10.0 mi SSW 17.3 mph 23.0 mph N/A   Clear
2:15 AM 39.4 °F 31.1 °F 30.9 °F 72% 29.57 in 10.0 mi SSW 15.0 mph 21.9 mph N/A   Clear
2:35 AM 39.2 °F 30.8 °F 30.9 °F 72% 29.57 in 10.0 mi SW 15.0 mph - N/A   Clear
2:50 AM 39.2 °F 30.8 °F 31.1 °F 73% 29.57 in 10.0 mi SW 15.0 mph - N/A   Clear
3:10 AM 39.2 °F 31.2 °F 31.1 °F 73% 29.56 in 10.0 mi SW 13.8 mph 19.6 mph N/A   Clear
3:30 AM 39.4 °F 31.8 °F 31.1 °F 72% 29.55 in 10.0 mi SW 12.7 mph 19.6 mph N/A   Clear
3:51 AM 39.0 °F 31.8 °F 31.3 °F 74% 29.55 in 10.0 mi SW 11.5 mph - N/A   Clear
4:11 AM 39.2 °F 31.2 °F 31.5 °F 74% 29.55 in 10.0 mi SSW 13.8 mph 19.6 mph N/A   Clear
4:31 AM 38.8 °F 30.8 °F 31.6 °F 75% 29.55 in 10.0 mi SW 13.8 mph 19.6 mph N/A   Clear
4:51 AM 38.7 °F 31.4 °F 31.8 °F 76% 29.54 in 10.0 mi SW 11.5 mph 18.4 mph N/A   Clear
5:11 AM 38.5 °F 30.7 °F 32.0 °F 78% 29.54 in 10.0 mi SSW 12.7 mph 18.4 mph N/A   Clear
5:31 AM 38.5 °F 31.6 °F 32.0 °F 78% 29.53 in 10.0 mi SSW 10.4 mph - N/A   Clear
5:51 AM 38.3 °F 30.5 °F 32.0 °F 78% 29.52 in 10.0 mi SSW 12.7 mph - N/A   Clear
6:11 AM 37.6 °F 31.0 °F 32.4 °F 81% 29.52 in 10.0 mi SSW 9.2 mph - N/A   Clear
6:31 AM 37.4 °F 30.3 °F 32.4 °F 82% 29.51 in 10.0 mi SSW 10.4 mph - N/A   Clear
6:52 AM 36.7 °F 29.9 °F 32.4 °F 84% 29.51 in 10.0 mi SSW 9.2 mph - N/A   Clear
7:12 AM 36.1 °F 31.4 °F 32.4 °F 86% 29.52 in 10.0 mi SSW 5.8 mph - N/A   Clear
7:32 AM 36.5 °F 31.0 °F 32.5 °F 86% 29.51 in 10.0 mi SSW 6.9 mph - N/A   Clear
7:52 AM 36.7 °F 30.5 °F 32.9 °F 86% 29.52 in 10.0 mi SSW 8.1 mph - N/A   Clear
8:12 AM 35.6 °F 29.2 °F 32.4 °F 88% 29.52 in 10.0 mi SSW 8.1 mph - N/A   Clear
8:32 AM 36.0 °F 30.3 °F 32.7 °F 88% 29.51 in 10.0 mi SSW 6.9 mph - N/A   Clear
8:52 AM 36.5 °F 31.0 °F 32.9 °F 87% 29.52 in 10.0 mi SW 6.9 mph - N/A   Clear
9:12 AM 37.2 °F 31.9 °F 32.9 °F 84% 29.53 in 10.0 mi SW 6.9 mph - N/A   Scattered Clouds
9:32 AM 37.0 °F 31.6 °F 33.1 °F 86% 29.53 in 10.0 mi SW 6.9 mph - N/A   Clear
9:53 AM 37.9 °F 32.1 °F 33.4 °F 84% 29.53 in 10.0 mi SW 8.1 mph - N/A   Scattered Clouds
10:13 AM 38.5 °F 33.4 °F 33.8 °F 83% 29.53 in 10.0 mi SW 6.9 mph - N/A   Mostly Cloudy
10:33 AM 38.3 °F 33.2 °F 33.8 °F 84% 29.53 in 10.0 mi WSW 6.9 mph - N/A   Overcast
10:53 AM 38.3 °F 33.2 °F 34.0 °F 84% 29.52 in 10.0 mi SW 6.9 mph - N/A   Overcast
11:13 AM 37.9 °F 30.9 °F 34.0 °F 86% 29.53 in 10.0 mi SSW 10.4 mph - N/A   Overcast
11:33 AM 37.6 °F 30.5 °F 33.8 °F 86% 29.52 in 10.0 mi SSW 10.4 mph - N/A   Overcast
11:53 AM 38.1 °F 31.7 °F 34.2 °F 86% 29.51 in 10.0 mi SW 9.2 mph - N/A   Overcast
12:13 PM 38.7 °F 32.9 °F 34.2 °F 84% 29.50 in 10.0 mi SW 8.1 mph - N/A   Overcast
12:33 PM 38.7 °F 34.3 °F 34.3 °F 84% 29.49 in 10.0 mi WSW 5.8 mph - N/A   Overcast
12:53 PM 38.3 °F 33.2 °F 34.2 °F 85% 29.50 in 10.0 mi WSW 6.9 mph - N/A   Overcast
1:14 PM 38.1 °F 32.9 °F 34.2 °F 86% 29.50 in 10.0 mi SW 6.9 mph - N/A   Overcast
1:34 PM 37.6 °F 32.3 °F 34.0 °F 87% 29.50 in 10.0 mi South 6.9 mph - N/A   Overcast
1:54 PM 37.9 °F 32.1 °F 34.0 °F 86% 29.50 in 10.0 mi WSW 8.1 mph - N/A   Overcast
2:14 PM 37.6 °F 31.6 °F 34.2 °F 87% 29.48 in 10.0 mi SW 8.1 mph - N/A   Overcast
2:34 PM 38.1 °F 31.7 °F 34.2 °F 86% 29.49 in 10.0 mi SW 9.2 mph - N/A   Mostly Cloudy
2:54 PM 38.1 °F 32.3 °F 34.2 °F 86% 29.49 in 10.0 mi SW 8.1 mph - N/A   Mostly Cloudy
3:14 PM 38.3 °F 33.9 °F 34.0 °F 84% 29.50 in 10.0 mi South 5.8 mph - N/A   Overcast
3:34 PM 37.4 °F 33.8 °F 33.8 °F 87% 29.50 in 10.0 mi SSW 4.6 mph - N/A   Overcast
3:54 PM 38.5 °F 33.4 °F 33.8 °F 83% 29.51 in 10.0 mi SW 6.9 mph - N/A   Overcast
4:15 PM 37.9 °F 32.1 °F 34.0 °F 86% 29.52 in 10.0 mi SW 8.1 mph - N/A   Overcast
4:35 PM 37.9 °F 32.7 °F 34.0 °F 86% 29.54 in 10.0 mi West 6.9 mph - N/A   Mostly Cloudy
4:55 PM 37.4 °F 32.8 °F 32.9 °F 84% 29.55 in 10.0 mi West 5.8 mph - N/A   Mostly Cloudy
5:15 PM 37.4 °F 33.8 °F 33.1 °F 84% 29.56 in 10.0 mi WSW 4.6 mph - N/A   Overcast
5:35 PM 36.9 °F 31.4 °F 33.1 °F 86% 29.57 in 10.0 mi West 6.9 mph - N/A   Overcast
5:55 PM 36.7 °F 30.5 °F 32.7 °F 86% 29.57 in 10.0 mi West 8.1 mph - N/A   Overcast
6:15 PM 36.3 °F 27.1 °F 32.0 °F 84% 29.58 in 10.0 mi WNW 15.0 mph - N/A   Overcast
6:30 PM 36.0 °F 27.5 °F 31.5 °F 84% 29.59 in 10.0 mi WNW 12.7 mph 16.1 mph N/A   Overcast
6:50 PM 35.8 °F 27.3 °F 31.1 °F 83% 29.59 in 10.0 mi WNW 12.7 mph - N/A   Overcast
7:10 PM 35.6 °F 29.2 °F 31.1 °F 84% 29.60 in 10.0 mi West 8.1 mph - N/A   Overcast
7:31 PM 34.7 °F 25.1 °F 30.4 °F 84% 29.61 in 10.0 mi WNW 15.0 mph - N/A   Overcast
7:51 PM 34.2 °F 25.2 °F 30.2 °F 85% 29.62 in 10.0 mi WNW 12.7 mph 16.1 mph N/A   Overcast
8:11 PM 34.0 °F 26.6 °F 29.3 °F 83% 29.62 in 10.0 mi West 9.2 mph - N/A   Overcast
8:31 PM 33.8 °F 25.8 °F 28.9 °F 82% 29.63 in 10.0 mi West 10.4 mph - N/A   Overcast
8:51 PM 33.4 °F 26.6 °F 27.7 °F 79% 29.63 in 10.0 mi West 8.1 mph - N/A   Overcast
9:11 PM 32.9 °F 25.9 °F 27.5 °F 81% 29.64 in 10.0 mi West 8.1 mph - N/A   Overcast
9:31 PM 32.4 °F 24.0 °F 27.0 °F 80% 29.65 in 10.0 mi West 10.4 mph - N/A   Overcast
9:51 PM 32.2 °F 25.0 °F 26.6 °F 80% 29.66 in 10.0 mi West 8.1 mph - N/A   Overcast
10:11 PM 31.6 °F 25.1 °F 26.4 °F 81% 29.66 in 10.0 mi West 6.9 mph - N/A   Mostly Cloudy
10:32 PM 30.9 °F 26.2 °F 26.1 °F 82% 29.66 in 10.0 mi West 4.6 mph - N/A   Scattered Clouds
10:52 PM 29.7 °F 24.7 °F 25.7 °F 85% 29.67 in 10.0 mi SW 4.6 mph - N/A   Clear
11:12 PM 28.4 °F 23.3 °F 25.7 °F 90% 29.66 in 10.0 mi WSW 4.6 mph - N/A   Clear
11:32 PM 27.7 °F 23.8 °F 25.5 °F 92% 29.67 in 10.0 mi SW 3.5 mph - N/A   Clear
11:52 PM 27.9 °F - 26.1 °F 93% 29.67 in 10.0 mi Calm Calm - N/A   Scattered Clouds